Time;durP1;ratioP1;P1;durP2;ratioP2;P2;SDS_P1;SDS_P2;PMS_P1;PMS_P2;Temp;Humidity;BMP_temperature;BMP_pressure;BME280_temperature;BME280_humidity;BME280_pressure;Samples;Min_cycle;Max_cycle;Signal;HPM_P1;HPM_P2
2021/11/16 00:01:52;;;;;;;0.00;0.00;;;;;;;11.75;64.60;101971.69;7356409;19;20017;-61
2021/11/16 00:04:17;;;;;;;0.00;0.00;;;;;;;11.75;64.68;101969.94;7361013;19;20007;-60
2021/11/16 00:06:48;;;;;;;0.00;0.00;;;;;;;11.75;64.86;101963.84;7362306;19;20077;-60
2021/11/16 00:09:13;;;;;;;0.00;0.00;;;;;;;11.73;65.21;101958.63;7355881;19;20018;-60
2021/11/16 00:11:38;;;;;;;0.10;0.10;;;;;;;11.72;65.26;101959.50;7363120;19;20033;-59
2021/11/16 00:14:04;;;;;;;0.00;0.00;;;;;;;11.72;65.14;101959.50;7360844;19;20030;-59
2021/11/16 00:16:30;;;;;;;0.00;0.00;;;;;;;11.73;65.33;101957.75;7361881;19;20070;-61
2021/11/16 00:18:59;;;;;;;0.00;0.00;;;;;;;11.72;64.98;101949.03;7361573;19;20099;-60
2021/11/16 00:21:26;;;;;;;0.00;0.00;;;;;;;11.73;65.07;101949.91;7357974;19;20582;-61
2021/11/16 00:24:08;;;;;;;0.00;0.00;;;;;;;11.72;64.89;101948.19;7356111;19;20017;-60
2021/11/16 00:26:34;;;;;;;0.00;0.00;;;;;;;11.72;65.35;101953.41;7361819;19;20113;-60
2021/11/16 00:28:59;;;;;;;0.00;0.00;;;;;;;11.58;65.23;101930.81;7361466;19;20008;-60
2021/11/16 00:31:25;;;;;;;0.00;0.00;;;;;;;11.69;65.01;101949.91;7358402;19;20007;-60
2021/11/16 00:33:50;;;;;;;0.00;0.00;;;;;;;11.69;65.42;101949.91;7360347;19;20006;-61
2021/11/16 00:36:16;;;;;;;0.00;0.00;;;;;;;11.68;65.13;101948.19;7353774;19;19998;-60
2021/11/16 00:38:42;;;;;;;0.00;0.00;;;;;;;11.68;65.52;101942.94;7359231;19;20351;-61
2021/11/16 00:41:08;;;;;;;0.00;0.00;;;;;;;11.66;65.03;101936.88;7359052;19;20010;-60
2021/11/16 00:43:33;;;;;;;0.00;0.00;;;;;;;11.68;65.11;101952.56;7353362;19;20011;-60
2021/11/16 00:45:59;;;;;;;0.00;0.00;;;;;;;11.68;64.54;101939.47;7353840;19;20011;-61
2021/11/16 00:48:25;;;;;;;0.10;0.10;;;;;;;11.65;65.00;101932.50;7360339;19;20717;-61
2021/11/16 00:50:56;;;;;;;0.00;0.00;;;;;;;11.66;64.85;101934.25;7359072;19;20114;-60
2021/11/16 00:53:24;;;;;;;0.00;0.00;;;;;;;11.65;64.71;101922.03;7351002;19;20014;-61
2021/11/16 00:55:51;;;;;;;0.00;0.00;;;;;;;11.64;64.55;101914.19;7353610;19;20553;-61
2021/11/16 00:58:16;;;;;;;0.00;0.00;;;;;;;11.62;64.67;101906.38;7353750;19;20018;-60
2021/11/16 01:00:43;;;;;;;0.00;0.00;;;;;;;11.62;64.74;101893.28;7353260;19;20015;-61
2021/11/16 01:03:10;;;;;;;0.00;0.00;;;;;;;11.62;64.73;101889.81;7360019;19;20018;-60
2021/11/16 01:05:35;;;;;;;0.03;0.03;;;;;;;11.60;64.60;101879.34;7356258;19;20695;-61
2021/11/16 01:08:01;;;;;;;0.00;0.00;;;;;;;11.59;64.70;101880.22;7358503;19;20038;-61
2021/11/16 01:10:27;;;;;;;0.00;0.00;;;;;;;11.59;64.56;101877.59;7358027;19;20017;-60
2021/11/16 01:12:53;;;;;;;0.00;0.00;;;;;;;11.57;64.75;101876.75;7356142;19;20017;-61
2021/11/16 01:15:19;;;;;;;0.00;0.00;;;;;;;11.55;64.50;101875.88;7359124;19;19999;-61
2021/11/16 01:17:45;;;;;;;0.00;0.00;;;;;;;11.54;64.50;101875.91;7357220;19;20037;-61
2021/11/16 01:20:13;;;;;;;0.00;0.00;;;;;;;11.52;64.67;101868.09;7356419;19;20018;-61
2021/11/16 01:22:39;;;;;;;0.00;0.00;;;;;;;11.49;64.31;101862.88;7358300;19;20074;-60
2021/11/16 01:25:07;;;;;;;0.00;0.00;;;;;;;11.47;64.47;101864.63;7352921;19;20469;-60
2021/11/16 01:27:36;;;;;;;0.00;0.00;;;;;;;11.43;65.34;101857.69;7356800;19;20477;-60
2021/11/16 01:30:06;;;;;;;0.00;0.00;;;;;;;11.42;65.50;101861.19;7354466;19;20011;-61
2021/11/16 01:34:58;;;;;;;0.00;0.00;;;;;;;11.37;65.34;101869.06;7358025;19;20013;-60
2021/11/16 01:37:24;;;;;;;0.00;0.00;;;;;;;11.37;64.59;101868.19;7357374;19;20098;-59
2021/11/16 01:39:51;;;;;;;0.00;0.00;;;;;;;11.35;64.73;101870.84;7361205;19;20098;-61
2021/11/16 01:42:17;;;;;;;0.00;0.00;;;;;;;11.33;64.74;101871.72;7357290;19;20478;-60
2021/11/16 01:44:43;;;;;;;0.00;0.00;;;;;;;11.30;64.93;101869.09;7357144;19;20018;-60
2021/11/16 01:47:09;;;;;;;0.00;0.00;;;;;;;11.30;64.58;101871.72;7359650;19;20058;-61
2021/11/16 01:49:35;;;;;;;0.00;0.00;;;;;;;11.29;64.95;101864.75;7362624;19;20026;-61
2021/11/16 01:52:00;;;;;;;0.00;0.00;;;;;;;11.28;65.22;101870.88;7366390;19;20006;-60
2021/11/16 01:54:26;;;;;;;0.00;0.00;;;;;;;11.26;64.87;101862.19;7362308;19;20515;-61
2021/11/16 01:56:52;;;;;;;0.00;0.00;;;;;;;11.24;64.76;101861.31;7366423;19;20010;-60
2021/11/16 01:59:19;;;;;;;0.00;0.00;;;;;;;11.24;64.92;101856.09;7366261;19;20040;-60
2021/11/16 02:01:46;;;;;;;0.00;0.00;;;;;;;11.24;65.06;101853.47;7364794;19;20036;-60
2021/11/16 02:04:13;;;;;;;0.00;0.00;;;;;;;11.21;65.11;101850.88;7366164;19;20018;-61
2021/11/16 02:06:40;;;;;;;0.00;0.00;;;;;;;11.23;65.17;101857.84;7362196;19;20022;-61
2021/11/16 02:09:10;;;;;;;0.10;0.10;;;;;;;11.21;65.02;101849.13;7364841;19;20018;-60
2021/11/16 02:11:35;;;;;;;0.00;0.00;;;;;;;11.10;65.71;101833.53;7362958;19;20022;-60
2021/11/16 02:14:03;;;;;;;0.00;0.00;;;;;;;11.16;65.14;101849.16;7364969;19;20066;-61
2021/11/16 02:16:28;;;;;;;;;;;;;;;11.17;64.41;101840.44;7365237;19;20010;-60
2021/11/16 02:18:54;;;;;;;0.00;0.00;;;;;;;11.11;65.32;101847.47;7365207;19;19918;-60
2021/11/16 02:21:19;;;;;;;0.00;0.00;;;;;;;11.07;65.33;101840.53;7362059;19;20026;-61
2021/11/16 02:23:45;;;;;;;0.00;0.00;;;;;;;11.05;65.04;101843.16;7367810;19;20010;-61
2021/11/16 02:26:12;;;;;;;0.00;0.00;;;;;;;11.01;65.58;101838.81;7365600;19;20417;-60
2021/11/16 02:28:43;;;;;;;0.10;0.10;;;;;;;10.99;65.67;101835.31;7363111;19;20514;-61
2021/11/16 02:31:08;;;;;;;0.00;0.00;;;;;;;10.95;65.29;101828.41;7361348;19;20584;-60
2021/11/16 02:33:33;;;;;;;0.00;0.00;;;;;;;10.93;65.83;101827.53;7361910;19;20014;-61
2021/11/16 02:35:59;;;;;;;0.00;0.00;;;;;;;10.92;65.59;101831.03;7365199;19;20018;-60
2021/11/16 02:38:25;;;;;;;0.00;0.00;;;;;;;10.90;65.57;101825.81;7364750;19;20081;-60
2021/11/16 02:40:53;;;;;;;0.00;0.00;;;;;;;10.89;65.99;101820.56;7363821;19;20021;-61
2021/11/16 02:43:18;;;;;;;0.00;0.00;;;;;;;10.86;65.82;101818.88;7364604;19;20904;-60
2021/11/16 02:45:44;;;;;;;0.00;0.00;;;;;;;10.85;66.03;101822.34;7360909;19;20098;-60
2021/11/16 02:48:12;;;;;;;0.00;0.00;;;;;;;10.84;65.60;101818.00;7360129;19;20013;-60
2021/11/16 02:50:49;;;;;;;0.10;0.10;;;;;;;10.86;65.22;101815.38;7360886;19;20006;-61
2021/11/16 02:53:15;;;;;;;0.00;0.00;;;;;;;10.83;65.91;101815.41;7364708;19;20010;-61
2021/11/16 02:55:41;;;;;;;0.00;0.00;;;;;;;10.82;65.81;101800.59;7363845;19;20030;-60
2021/11/16 02:58:07;;;;;;;0.00;0.00;;;;;;;10.73;65.76;101792.81;7362151;19;20021;-61
2021/11/16 03:00:34;;;;;;;0.10;0.10;;;;;;;10.82;66.21;101795.38;7358930;19;21873;-60
2021/11/16 03:03:00;;;;;;;0.00;0.00;;;;;;;10.80;66.23;101791.91;7369106;19;20010;-60
2021/11/16 03:05:33;;;;;;;0.00;0.00;;;;;;;10.80;66.21;101782.31;7368739;19;20018;-61
2021/11/16 03:08:00;;;;;;;0.00;0.00;;;;;;;10.76;66.26;101772.78;7364043;19;20014;-60
2021/11/16 03:10:29;;;;;;;0.00;0.00;;;;;;;10.83;66.46;101776.19;7368632;19;20073;-61
2021/11/16 03:12:55;;;;;;;0.03;0.03;;;;;;;10.84;66.36;101780.53;7369200;19;20037;-60
2021/11/16 03:15:20;;;;;;;0.00;0.00;;;;;;;10.85;66.59;101774.47;7362071;19;20083;-61
2021/11/16 03:17:47;;;;;;;0.00;0.00;;;;;;;10.86;66.24;101764.00;7368209;19;20043;-60
2021/11/16 03:20:15;;;;;;;0.00;0.00;;;;;;;10.89;65.97;101765.69;7363516;19;20161;-60
2021/11/16 03:22:55;;;;;;;0.00;0.00;;;;;;;10.92;65.83;101755.25;7366234;19;20074;-60
2021/11/16 03:25:28;;;;;;;0.00;0.00;;;;;;;10.93;65.68;101748.25;7368011;19;20023;-61
2021/11/16 03:28:01;;;;;;;0.00;0.00;;;;;;;10.92;65.92;101750.00;7365647;19;20037;-59
2021/11/16 03:30:29;;;;;;;0.00;0.00;;;;;;;10.89;65.58;101744.78;7366496;19;20047;-60
2021/11/16 03:32:54;;;;;;;0.00;0.00;;;;;;;10.91;65.39;101743.06;7368990;19;21028;-60
2021/11/16 03:35:20;;;;;;;0.00;0.00;;;;;;;10.90;65.42;101736.97;7365714;19;20114;-60
2021/11/16 03:37:49;;;;;;;0.00;0.00;;;;;;;10.92;65.43;101734.31;7366523;19;20044;-60
2021/11/16 03:40:16;;;;;;;0.00;0.00;;;;;;;10.94;65.07;101726.47;7359066;19;20010;-61
2021/11/16 03:42:46;;;;;;;0.00;0.00;;;;;;;10.93;65.05;101717.75;7366644;19;20010;-61
2021/11/16 03:45:13;;;;;;;0.00;0.00;;;;;;;10.92;65.74;101718.66;7369522;19;20020;-61
2021/11/16 03:47:39;;;;;;;0.00;0.00;;;;;;;10.90;64.93;101704.75;7364540;19;20019;-61
2021/11/16 03:50:07;;;;;;;0.00;0.00;;;;;;;10.76;65.26;101690.91;7367417;19;20032;-61
2021/11/16 03:52:35;;;;;;;0.10;0.10;;;;;;;10.90;65.51;101712.59;7360000;19;22340;-60
2021/11/16 03:55:01;;;;;;;0.00;0.00;;;;;;;10.90;65.23;101707.34;7366242;19;20093;-60
2021/11/16 03:57:28;;;;;;;0.00;0.00;;;;;;;10.81;65.32;101689.13;7356040;19;20018;-60
2021/11/16 03:59:54;;;;;;;0.10;0.10;;;;;;;10.87;65.23;101695.16;7366502;19;20014;-60
2021/11/16 04:02:19;;;;;;;0.00;0.00;;;;;;;10.88;65.32;101685.56;7365553;19;20013;-60
2021/11/16 04:04:46;;;;;;;0.00;0.00;;;;;;;10.87;65.40;101679.47;7367698;19;20080;-59
2021/11/16 04:07:11;;;;;;;0.00;0.00;;;;;;;10.86;65.15;101663.84;7361857;19;20011;-61
2021/11/16 04:09:37;;;;;;;0.00;0.00;;;;;;;10.86;65.10;101661.22;7366188;19;20078;-60
2021/11/16 04:12:03;;;;;;;0.00;0.00;;;;;;;10.85;65.20;101660.34;7357212;19;20010;-61
2021/11/16 04:14:28;;;;;;;0.00;0.00;;;;;;;10.83;65.49;101661.22;7367810;19;20018;-61
2021/11/16 04:16:54;;;;;;;0.00;0.00;;;;;;;10.76;65.35;101652.59;7368211;19;20010;-60
2021/11/16 04:19:20;;;;;;;0.00;0.00;;;;;;;10.84;65.66;101660.34;7361390;19;20945;-61
2021/11/16 04:21:46;;;;;;;0.00;0.00;;;;;;;10.84;65.60;101647.28;7363773;19;20719;-60
2021/11/16 04:24:11;;;;;;;0.00;0.00;;;;;;;10.82;65.61;101644.69;7368497;19;20481;-61
2021/11/16 04:26:37;;;;;;;0.00;0.00;;;;;;;10.84;65.09;101642.06;7366679;19;20006;-60
2021/11/16 04:29:03;;;;;;;0.00;0.00;;;;;;;10.74;65.46;101624.72;7366417;19;20010;-60
2021/11/16 04:31:29;;;;;;;0.00;0.00;;;;;;;10.84;65.29;101644.66;7366892;19;20363;-61
2021/11/16 04:34:02;;;;;;;0.10;0.10;;;;;;;10.84;65.35;101631.59;7366948;19;20021;-60
2021/11/16 04:36:28;;;;;;;0.00;0.00;;;;;;;10.82;65.37;101628.16;7367231;19;20045;-60
2021/11/16 04:38:53;;;;;;;0.00;0.00;;;;;;;10.81;65.60;101626.44;7365061;19;26081;-61
2021/11/16 04:41:19;;;;;;;0.00;0.00;;;;;;;10.80;65.87;101629.94;7362991;19;20017;-60
2021/11/16 04:43:44;;;;;;;0.00;0.00;;;;;;;10.79;65.37;101625.56;7365685;19;20513;-60
2021/11/16 04:46:12;;;;;;;0.00;0.00;;;;;;;10.75;65.36;101621.25;7365302;19;20051;-60
2021/11/16 04:49:42;;;;;;;0.00;0.00;;;;;;;10.76;65.45;101620.38;7364181;19;20730;-60
2021/11/16 04:51:50;;;;;;;0.00;0.00;;;;;;;10.74;65.57;101620.38;7261946;19;2004402;-61
2021/11/16 04:54:44;;;;;;;0.00;0.00;;;;;;;10.71;65.82;101616.94;7365587;19;20010;-60
2021/11/16 05:02:37;;;;;;;0.00;0.00;;;;;;;10.72;65.60;101616.06;7362220;19;20011;-60
2021/11/16 05:05:09;;;;;;;0.00;0.00;;;;;;;10.64;65.72;101596.09;7362900;19;20015;-60
2021/11/16 05:07:36;;;;;;;0.10;0.10;;;;;;;10.74;65.64;101617.75;7341648;19;20014;-60
2021/11/16 05:10:05;;;;;;;0.00;0.00;;;;;;;10.76;66.10;101617.75;7364281;19;20007;-59
2021/11/16 05:12:34;;;;;;;0.00;0.00;;;;;;;10.76;65.49;101612.53;7362374;19;20806;-60
2021/11/16 05:15:05;;;;;;;0.10;0.10;;;;;;;10.80;65.55;101616.84;7363369;19;20006;-60
2021/11/16 05:17:31;;;;;;;0.10;0.10;;;;;;;10.79;65.51;101612.50;7359951;19;20006;-61
2021/11/16 05:19:56;;;;;;;0.00;0.00;;;;;;;10.82;65.97;101615.09;7362461;19;20381;-60
2021/11/16 05:22:22;;;;;;;0.00;0.00;;;;;;;10.74;65.67;101596.00;7363643;19;20010;-61
2021/11/16 05:24:48;;;;;;;0.00;0.00;;;;;;;10.80;65.61;101598.56;7371247;19;20015;-60
2021/11/16 05:27:15;;;;;;;0.00;0.00;;;;;;;10.88;66.17;101602.81;7369798;19;20498;-61
2021/11/16 05:29:41;;;;;;;0.00;0.00;;;;;;;10.91;65.69;101607.16;7370035;19;20011;-62
2021/11/16 05:32:06;;;;;;;0.00;0.00;;;;;;;10.93;65.70;101600.16;7366570;19;20094;-60
2021/11/16 05:34:32;;;;;;;0.00;0.00;;;;;;;10.94;65.61;101585.34;7371669;19;20015;-60
2021/11/16 05:36:57;;;;;;;0.00;0.00;;;;;;;10.95;65.65;101576.63;7369709;19;20014;-60
2021/11/16 05:39:23;;;;;;;0.00;0.00;;;;;;;10.95;65.44;101574.00;7367765;19;20537;-60
2021/11/16 05:41:48;;;;;;;0.10;0.10;;;;;;;10.95;65.52;101572.28;7368371;19;20015;-61
2021/11/16 05:44:15;;;;;;;0.00;0.00;;;;;;;10.96;65.33;101568.78;7365495;19;20018;-60
2021/11/16 05:46:40;;;;;;;0.00;0.00;;;;;;;10.93;65.30;101558.34;7370522;19;20018;-60
2021/11/16 05:49:06;;;;;;;0.00;0.00;;;;;;;10.94;65.07;101560.06;7368325;19;20035;-60
2021/11/16 05:51:31;;;;;;;0.00;0.00;;;;;;;10.92;65.88;101559.25;7369529;19;20019;-60
2021/11/16 05:54:02;;;;;;;0.00;0.00;;;;;;;10.92;66.02;101556.63;7369184;19;20123;-60
2021/11/16 05:56:32;;;;;;;0.00;0.00;;;;;;;10.91;65.66;101554.91;7362383;19;20109;-60
2021/11/16 05:58:59;;;;;;;0.00;0.00;;;;;;;10.89;66.03;101552.28;7371198;19;20018;-61
2021/11/16 06:01:28;;;;;;;0.00;0.00;;;;;;;10.90;65.52;101558.41;7366298;19;20370;-59
2021/11/16 06:03:55;;;;;;;0.00;0.00;;;;;;;10.89;65.85;101554.03;7370242;19;20021;-60
2021/11/16 06:06:27;;;;;;;0.10;0.10;;;;;;;10.90;65.53;101554.03;7364191;19;21534;-60
2021/11/16 06:08:53;;;;;;;0.00;0.00;;;;;;;10.90;65.52;101553.19;7371098;19;20014;-60
2021/11/16 06:11:20;;;;;;;0.10;0.10;;;;;;;10.90;65.61;101555.78;7368898;19;20018;-61
2021/11/16 06:13:46;;;;;;;0.00;0.00;;;;;;;10.92;65.28;101556.63;7370267;19;20015;-60
2021/11/16 06:16:13;;;;;;;0.00;0.00;;;;;;;10.94;65.31;101548.75;7369208;19;20030;-60
2021/11/16 06:18:40;;;;;;;0.00;0.00;;;;;;;10.94;65.51;101544.41;7367738;19;20018;-60
2021/11/16 06:21:06;;;;;;;0.00;0.00;;;;;;;10.95;65.38;101545.25;7367409;19;22186;-60
2021/11/16 06:23:33;;;;;;;0.00;0.00;;;;;;;10.98;65.18;101548.72;7370730;19;20017;-61
2021/11/16 06:26:00;;;;;;;0.00;0.00;;;;;;;11.00;65.40;101540.84;7369259;19;20023;-61
2021/11/16 06:28:25;;;;;;;0.00;0.00;;;;;;;11.02;65.00;101532.13;7366960;19;20066;-61
2021/11/16 06:30:51;;;;;;;0.10;0.10;;;;;;;11.03;65.27;101539.06;7368449;19;20014;-61
2021/11/16 06:33:21;;;;;;;0.00;0.00;;;;;;;10.94;65.22;101522.63;7368277;19;20026;-60
2021/11/16 06:35:46;;;;;;;0.10;0.10;;;;;;;11.05;65.02;101545.19;7366963;19;20469;-60
2021/11/16 06:38:12;;;;;;;0.00;0.00;;;;;;;11.09;64.96;101539.00;7366273;19;20015;-60
2021/11/16 06:40:37;;;;;;;0.00;0.00;;;;;;;11.12;64.78;101538.97;7366087;19;20014;-60
2021/11/16 06:43:03;;;;;;;0.10;0.10;;;;;;;11.14;64.64;101536.34;7370256;19;20018;-60
2021/11/16 06:45:29;;;;;;;0.00;0.00;;;;;;;11.15;64.68;101533.72;7366154;19;20037;-60
2021/11/16 06:47:54;;;;;;;0.00;0.00;;;;;;;11.13;65.01;101521.53;7366893;19;20434;-61
2021/11/16 06:50:20;;;;;;;0.00;0.00;;;;;;;11.08;64.75;101511.13;7366087;19;20022;-61
2021/11/16 06:52:45;;;;;;;0.10;0.10;;;;;;;11.20;64.65;101519.72;7366882;19;20010;-61
2021/11/16 06:55:12;;;;;;;0.10;0.10;;;;;;;11.18;64.78;101512.75;7368748;19;20450;-60
2021/11/16 06:57:38;;;;;;;0.00;0.00;;;;;;;11.22;65.04;101517.97;7368061;19;20010;-60
2021/11/16 07:00:06;;;;;;;0.00;0.00;;;;;;;11.22;64.93;101512.72;7370505;19;20014;-61
2021/11/16 07:02:32;;;;;;;0.00;0.00;;;;;;;11.22;65.13;101512.72;7364162;19;20018;-60
2021/11/16 07:04:57;;;;;;;0.00;0.00;;;;;;;11.22;64.63;101512.72;7368892;19;20011;-60
2021/11/16 07:07:23;;;;;;;0.00;0.00;;;;;;;11.22;64.94;101507.50;7368500;19;20030;-60
2021/11/16 07:09:48;;;;;;;0.00;0.00;;;;;;;11.22;65.15;101507.50;7368015;19;20011;-60
2021/11/16 07:12:18;;;;;;;0.00;0.00;;;;;;;11.24;65.17;101500.50;7366129;19;20462;-61
2021/11/16 07:14:44;;;;;;;0.10;0.10;;;;;;;11.18;65.02;101486.63;7366686;19;20102;-61
2021/11/16 07:17:12;;;;;;;0.10;0.10;;;;;;;11.24;64.66;101484.81;7365844;19;20018;-60
2021/11/16 07:19:45;;;;;;;0.00;0.00;;;;;;;11.25;64.63;101481.31;7362282;19;20015;-60
2021/11/16 07:22:15;;;;;;;0.00;0.00;;;;;;;11.22;65.16;101477.00;7366527;19;20015;-60
2021/11/16 07:24:48;;;;;;;0.03;0.03;;;;;;;11.23;64.61;101477.84;7361644;19;20010;-59
2021/11/16 07:27:20;;;;;;;0.00;0.00;;;;;;;11.22;65.01;101474.38;7366363;19;20010;-61
2021/11/16 07:29:52;;;;;;;0.00;0.00;;;;;;;11.22;65.32;101481.38;7358751;19;20006;-61
2021/11/16 07:32:19;;;;;;;0.00;0.00;;;;;;;11.22;65.33;101476.13;7364517;19;20047;-60
2021/11/16 07:34:46;;;;;;;0.00;0.00;;;;;;;11.20;65.04;101485.72;7359794;19;20354;-61
2021/11/16 07:37:18;;;;;;;0.00;0.00;;;;;;;11.22;65.08;101486.59;7363431;19;20677;-60
2021/11/16 07:39:45;;;;;;;0.00;0.00;;;;;;;11.21;65.35;101479.63;7363771;19;20040;-61
2021/11/16 07:42:11;;;;;;;0.10;0.10;;;;;;;11.20;65.39;101464.81;7357372;19;20097;-61
2021/11/16 07:44:37;;;;;;;0.00;0.00;;;;;;;11.18;65.41;101470.94;7360976;19;20131;-61
2021/11/16 07:47:03;;;;;;;0.00;0.00;;;;;;;11.18;65.44;101465.69;7361538;19;20030;-60
2021/11/16 07:49:29;;;;;;;0.00;0.00;;;;;;;11.19;65.79;101461.34;7364622;19;20002;-61
2021/11/16 07:51:56;;;;;;;0.00;0.00;;;;;;;11.16;65.51;101457.03;7361945;19;20006;-60
2021/11/16 07:54:27;;;;;;;0.10;0.10;;;;;;;11.22;65.66;101465.69;7360608;19;20037;-60
2021/11/16 07:57:00;;;;;;;0.00;0.00;;;;;;;11.19;65.80;101461.34;7367005;19;20018;-61
2021/11/16 07:59:26;;;;;;;0.00;0.00;;;;;;;11.20;65.76;101456.97;7363338;19;20018;-60
2021/11/16 08:01:57;;;;;;;0.00;0.00;;;;;;;11.20;65.71;101456.97;7361348;19;20026;-61
2021/11/16 08:07:23;;;;;;;0.10;0.10;;;;;;;11.21;65.70;101450.88;7359661;19;20027;-61
2021/11/16 08:09:51;;;;;;;0.00;0.00;;;;;;;11.20;65.59;101454.34;7362921;19;20025;-61
2021/11/16 08:15:07;;;;;;;0.00;0.00;;;;;;;11.25;65.31;101465.63;7366999;19;20038;-60
2021/11/16 08:17:33;;;;;;;0.10;0.10;;;;;;;11.21;65.82;101453.50;7254923;19;2004257;-61
2021/11/16 08:20:03;;;;;;;0.10;0.10;;;;;;;11.23;66.22;101451.72;7366673;19;20467;-60
2021/11/16 08:22:28;;;;;;;0.00;0.00;;;;;;;11.17;66.12;101435.22;7363763;19;20208;-60
2021/11/16 08:24:56;;;;;;;0.00;0.00;;;;;;;11.23;66.28;101449.09;7364269;19;20129;-61
2021/11/16 08:27:43;;;;;;;0.00;0.00;;;;;;;11.26;65.20;101441.22;7348231;19;20121;-61
2021/11/16 08:30:20;;;;;;;0.00;0.00;;;;;;;11.28;65.44;101439.44;7347877;19;20006;-61
2021/11/16 08:32:49;;;;;;;0.10;0.10;;;;;;;11.24;66.07;101437.75;7336281;19;20007;-61
2021/11/16 08:35:21;;;;;;;0.00;0.00;;;;;;;11.27;66.02;101437.72;7346672;19;20735;-60
2021/11/16 08:37:47;;;;;;;0.10;0.10;;;;;;;11.26;65.90;101451.69;7340213;19;20526;-61
2021/11/16 08:40:25;;;;;;;0.00;0.00;;;;;;;11.29;65.88;101443.78;7342789;19;20011;-61
2021/11/16 08:42:53;;;;;;;0.00;0.00;;;;;;;11.29;65.69;101431.56;7354363;19;20019;-61
2021/11/16 08:45:25;;;;;;;0.10;0.10;;;;;;;11.30;65.66;101437.66;7359923;19;20066;-60
2021/11/16 08:48:04;;;;;;;0.00;0.00;;;;;;;11.24;65.58;101411.59;7362705;19;20014;-61
2021/11/16 08:50:33;;;;;;;0.10;0.10;;;;;;;11.27;65.84;101422.03;7361921;19;20018;-61
2021/11/16 08:53:04;;;;;;;0.05;0.05;;;;;;;11.30;65.69;101421.97;7356946;19;20010;-59
2021/11/16 08:55:33;;;;;;;0.00;0.00;;;;;;;11.29;65.99;101420.25;7360412;19;20018;-61
2021/11/16 08:58:00;;;;;;;0.08;0.08;;;;;;;11.31;65.63;101408.03;7361534;19;20015;-60
2021/11/16 09:00:31;;;;;;;0.00;0.00;;;;;;;11.33;65.52;101414.97;7360754;19;20030;-60
2021/11/16 09:03:07;;;;;;;0.00;0.00;;;;;;;11.34;65.65;101418.44;7358267;19;20011;-60
2021/11/16 09:05:43;;;;;;;0.00;0.00;;;;;;;11.33;65.78;101411.47;7357336;19;20081;-61
2021/11/16 09:08:18;;;;;;;0.03;0.03;;;;;;;11.36;65.47;101416.69;7362935;19;20078;-61
2021/11/16 09:10:46;;;;;;;0.00;0.00;;;;;;;11.34;65.58;101413.19;7354993;19;20014;-60
2021/11/16 09:13:13;;;;;;;;;;;;;;;11.39;64.73;101407.00;7361532;19;20498;-60
2021/11/16 09:15:43;;;;;;;0.10;0.10;;;;;;;11.38;65.43;101407.03;7362711;19;19939;-60
2021/11/16 09:18:30;;;;;;;0.00;0.00;;;;;;;11.39;65.32;101400.94;7358502;19;20033;-60
2021/11/16 09:21:02;;;;;;;0.10;0.10;;;;;;;11.37;65.48;101402.72;7361176;19;20050;-61
2021/11/16 09:23:34;;;;;;;0.00;0.00;;;;;;;11.37;65.59;101407.94;7360085;19;20014;-61
2021/11/16 09:26:14;;;;;;;0.10;0.10;;;;;;;11.37;65.00;101413.16;7358625;19;20094;-61
2021/11/16 09:28:47;;;;;;;0.00;0.00;;;;;;;11.37;65.64;101407.94;7363109;19;20888;-61
2021/11/16 09:31:21;;;;;;;0.10;0.10;;;;;;;11.37;65.34;101403.56;7363709;19;20102;-60
2021/11/16 09:33:49;;;;;;;0.03;0.03;;;;;;;11.36;65.81;101403.59;7351533;19;20379;-61
2021/11/16 09:36:29;;;;;;;0.00;0.00;;;;;;;11.39;64.97;101398.31;7352727;19;20050;-61
2021/11/16 09:39:04;;;;;;;0.03;0.03;;;;;;;11.37;65.82;101392.25;7360836;19;20034;-61
2021/11/16 09:41:42;;;;;;;0.00;0.00;;;;;;;11.37;65.25;101385.28;7358562;19;20010;-60
2021/11/16 09:44:21;;;;;;;0.00;0.00;;;;;;;11.35;65.68;101378.31;7359689;19;20002;-60
2021/11/16 09:46:57;;;;;;;0.00;0.00;;;;;;;11.38;65.56;101367.81;7364242;19;20020;-61
2021/11/16 09:49:32;;;;;;;0.03;0.03;;;;;;;11.38;65.53;101362.59;7358870;19;20030;-60
2021/11/16 09:52:00;;;;;;;0.00;0.00;;;;;;;11.39;65.46;101369.53;7356384;19;20015;-61
2021/11/16 09:54:26;;;;;;;0.00;0.00;;;;;;;11.39;65.18;101369.53;7358927;19;20007;-60
2021/11/16 09:57:08;;;;;;;0.00;0.00;;;;;;;11.41;65.51;101371.25;7359148;19;20010;-60
2021/11/16 09:59:37;;;;;;;0.00;0.00;;;;;;;11.40;65.77;101363.41;7358511;19;20017;-60
2021/11/16 10:02:03;;;;;;;0.00;0.00;;;;;;;11.41;65.28;101376.50;7360395;19;20009;-61
2021/11/16 10:04:34;;;;;;;0.10;0.10;;;;;;;11.30;65.82;101349.63;7361501;19;20040;-60
2021/11/16 10:07:00;;;;;;;0.10;0.10;;;;;;;11.41;66.20;101362.56;7358965;19;20003;-60
2021/11/16 10:09:25;;;;;;;0.00;0.00;;;;;;;11.41;66.21;101362.56;7361199;19;20545;-61
2021/11/16 10:11:53;;;;;;;0.08;0.08;;;;;;;11.44;65.63;101362.50;7368235;19;20013;-61
2021/11/16 10:14:21;;;;;;;0.00;0.00;;;;;;;11.43;66.01;101356.41;7362606;19;20002;-61
2021/11/16 10:16:47;;;;;;;0.00;0.00;;;;;;;11.40;66.06;101352.97;7367673;19;20021;-61
2021/11/16 10:19:13;;;;;;;0.00;0.00;;;;;;;11.42;65.97;101349.44;7361935;19;21151;-61
2021/11/16 10:21:40;;;;;;;0.10;0.10;;;;;;;11.43;66.19;101355.53;7366126;19;20010;-61
2021/11/16 10:24:30;;;;;;;0.03;0.03;;;;;;;11.45;65.31;101356.38;7370018;19;20011;-60
2021/11/16 10:27:32;;;;;;;0.00;0.00;;;;;;;11.44;65.26;101352.91;7266874;19;2004559;-60
2021/11/16 10:30:12;;;;;;;0.10;0.10;;;;;;;11.45;65.68;101353.75;7262574;19;2004206;-61
2021/11/16 10:32:39;;;;;;;0.00;0.00;;;;;;;11.43;66.27;101342.47;7365015;19;20115;-60
2021/11/16 10:35:14;;;;;;;0.10;0.10;;;;;;;11.44;66.01;101346.81;7365631;19;20023;-60
2021/11/16 10:37:50;;;;;;;0.05;0.05;;;;;;;11.44;65.71;101341.56;7366460;19;20482;-60
2021/11/16 10:40:17;;;;;;;0.00;0.00;;;;;;;11.42;66.20;101345.97;7364958;19;20010;-60
2021/11/16 10:42:45;;;;;;;0.00;0.00;;;;;;;11.44;66.37;101341.56;7367209;19;20069;-61
2021/11/16 10:45:17;;;;;;;0.08;0.08;;;;;;;11.45;66.46;101338.06;7363117;19;20338;-60
2021/11/16 10:47:47;;;;;;;0.00;0.00;;;;;;;11.44;66.31;101341.56;7366900;19;20031;-61
2021/11/16 10:50:19;;;;;;;0.00;0.00;;;;;;;11.48;66.43;101326.69;7364624;19;20097;-60
2021/11/16 10:53:05;;;;;;;0.00;0.00;;;;;;;11.51;66.27;101332.75;7364790;19;20370;-61
2021/11/16 10:55:49;;;;;;;0.00;0.00;;;;;;;11.54;66.00;101332.69;7364826;19;20610;-60
2021/11/16 10:58:17;;;;;;;0.00;0.00;;;;;;;11.53;66.87;101333.59;7368595;19;20010;-61
2021/11/16 11:00:45;;;;;;;;;;;;;;;11.59;65.25;101330.84;7369515;19;21069;-61
2021/11/16 11:03:48;;;;;;;0.00;0.00;;;;;;;11.59;65.50;101320.38;7368423;19;19934;-59
2021/11/16 11:06:18;;;;;;;0.00;0.00;;;;;;;11.60;66.53;101316.88;7261386;19;2004514;-61
2021/11/16 11:09:00;;;;;;;0.10;0.10;;;;;;;11.63;66.53;101327.31;7367549;19;20014;-61
2021/11/16 11:11:29;;;;;;;0.00;0.00;;;;;;;11.67;66.24;101317.66;7367491;19;20014;-61
2021/11/16 11:14:07;;;;;;;0.00;0.00;;;;;;;11.69;66.66;101306.25;7367884;19;20017;-61
2021/11/16 11:16:36;;;;;;;0.00;0.00;;;;;;;11.75;66.31;101293.97;7368032;19;20006;-60
2021/11/16 11:19:03;;;;;;;0.00;0.00;;;;;;;11.78;66.70;101301.78;7363124;19;20021;-61
2021/11/16 11:21:43;;;;;;;0.00;0.00;;;;;;;11.85;67.01;101300.78;7364854;19;20102;-61
2021/11/16 11:24:20;;;;;;;0.00;0.00;;;;;;;11.91;66.63;101301.56;7363242;19;20014;-61
2021/11/16 11:26:55;;;;;;;0.10;0.10;;;;;;;11.95;66.77;101300.59;7367192;19;20497;-60
2021/11/16 11:29:29;;;;;;;0.00;0.00;;;;;;;12.04;66.26;101296.09;7362645;19;20010;-61
2021/11/16 11:32:16;;;;;;;0.00;0.00;;;;;;;12.14;66.03;101288.00;7365241;19;20006;-60
2021/11/16 11:34:49;;;;;;;0.00;0.00;;;;;;;12.20;66.02;101297.50;7364515;19;20002;-61
2021/11/16 11:37:19;;;;;;;0.00;0.00;;;;;;;12.24;65.75;101286.06;7363467;19;20371;-61
2021/11/16 11:40:02;;;;;;;0.00;0.00;;;;;;;12.32;66.03;101264.97;7361923;19;20010;-60
2021/11/16 11:42:33;;;;;;;0.00;0.00;;;;;;;12.32;66.04;101262.38;7362886;19;20017;-61
2021/11/16 11:45:10;;;;;;;0.00;0.00;;;;;;;12.24;65.91;101241.56;7365509;19;20034;-61
2021/11/16 11:47:40;;;;;;;0.00;0.00;;;;;;;12.39;65.58;101269.19;7364751;19;20477;-61
2021/11/16 11:50:27;;;;;;;0.10;0.10;;;;;;;12.42;65.70;101263.91;7357084;19;20011;-60